sensor_id;sensor_type;location;lat;lon;timestamp;P1;durP1;ratioP1;P2;durP2;ratioP2
11039;SDS011;5573;49.592;8.662;2023-02-15T00:01:42;55.00;;;52.10;;
11039;SDS011;5573;49.592;8.662;2023-02-15T00:04:12;55.43;;;52.30;;
11039;SDS011;5573;49.592;8.662;2023-02-15T00:06:42;49.83;;;46.93;;
11039;SDS011;5573;49.592;8.662;2023-02-15T00:09:10;51.17;;;48.47;;
11039;SDS011;5573;49.592;8.662;2023-02-15T00:11:38;54.50;;;51.57;;
11039;SDS011;5573;49.592;8.662;2023-02-15T00:14:16;51.83;;;49.00;;
11039;SDS011;5573;49.592;8.662;2023-02-15T00:16:47;54.70;;;51.40;;
11039;SDS011;5573;49.592;8.662;2023-02-15T00:19:17;47.87;;;45.23;;
11039;SDS011;5573;49.592;8.662;2023-02-15T00:21:48;53.20;;;50.37;;
11039;SDS011;5573;49.592;8.662;2023-02-15T00:24:17;56.03;;;52.90;;
11039;SDS011;5573;49.592;8.662;2023-02-15T00:26:45;49.07;;;46.47;;
11039;SDS011;5573;49.592;8.662;2023-02-15T00:29:15;55.63;;;52.63;;
11039;SDS011;5573;49.592;8.662;2023-02-15T00:31:44;48.90;;;46.27;;
11039;SDS011;5573;49.592;8.662;2023-02-15T00:34:12;51.63;;;48.87;;
11039;SDS011;5573;49.592;8.662;2023-02-15T00:36:42;53.43;;;50.60;;
11039;SDS011;5573;49.592;8.662;2023-02-15T00:39:11;47.60;;;45.03;;
11039;SDS011;5573;49.592;8.662;2023-02-15T00:41:39;46.20;;;43.70;;
11039;SDS011;5573;49.592;8.662;2023-02-15T00:44:07;49.50;;;46.83;;
11039;SDS011;5573;49.592;8.662;2023-02-15T00:46:35;52.70;;;49.90;;
11039;SDS011;5573;49.592;8.662;2023-02-15T00:49:04;48.13;;;45.57;;
11039;SDS011;5573;49.592;8.662;2023-02-15T00:51:32;53.50;;;50.50;;
11039;SDS011;5573;49.592;8.662;2023-02-15T00:54:00;50.73;;;48.03;;
11039;SDS011;5573;49.592;8.662;2023-02-15T00:56:29;49.23;;;46.57;;
11039;SDS011;5573;49.592;8.662;2023-02-15T00:58:57;51.53;;;48.83;;
11039;SDS011;5573;49.592;8.662;2023-02-15T01:01:25;50.73;;;47.97;;
11039;SDS011;5573;49.592;8.662;2023-02-15T01:03:53;51.37;;;48.47;;
11039;SDS011;5573;49.592;8.662;2023-02-15T01:06:21;53.07;;;50.27;;
11039;SDS011;5573;49.592;8.662;2023-02-15T01:08:49;48.80;;;46.07;;
11039;SDS011;5573;49.592;8.662;2023-02-15T01:11:18;48.77;;;46.10;;
11039;SDS011;5573;49.592;8.662;2023-02-15T01:14:10;45.73;;;43.33;;
11039;SDS011;5573;49.592;8.662;2023-02-15T01:16:37;43.57;;;41.27;;
11039;SDS011;5573;49.592;8.662;2023-02-15T01:19:05;47.50;;;44.93;;
11039;SDS011;5573;49.592;8.662;2023-02-15T01:21:33;44.87;;;42.40;;
11039;SDS011;5573;49.592;8.662;2023-02-15T01:24:01;47.17;;;44.53;;
11039;SDS011;5573;49.592;8.662;2023-02-15T01:26:29;47.03;;;44.47;;
11039;SDS011;5573;49.592;8.662;2023-02-15T01:28:57;46.97;;;44.43;;
11039;SDS011;5573;49.592;8.662;2023-02-15T01:31:26;47.50;;;45.00;;
11039;SDS011;5573;49.592;8.662;2023-02-15T01:33:54;43.97;;;41.57;;
11039;SDS011;5573;49.592;8.662;2023-02-15T01:36:22;43.93;;;41.63;;
11039;SDS011;5573;49.592;8.662;2023-02-15T01:38:50;42.07;;;39.83;;
11039;SDS011;5573;49.592;8.662;2023-02-15T01:41:18;43.60;;;40.90;;
11039;SDS011;5573;49.592;8.662;2023-02-15T01:43:54;41.07;;;38.77;;
11039;SDS011;5573;49.592;8.662;2023-02-15T01:46:24;47.57;;;44.97;;
11039;SDS011;5573;49.592;8.662;2023-02-15T01:49:02;45.13;;;42.73;;
11039;SDS011;5573;49.592;8.662;2023-02-15T01:51:36;41.43;;;39.10;;
11039;SDS011;5573;49.592;8.662;2023-02-15T01:54:07;38.83;;;36.73;;
11039;SDS011;5573;49.592;8.662;2023-02-15T01:56:38;42.87;;;40.53;;
11039;SDS011;5573;49.592;8.662;2023-02-15T01:59:09;45.20;;;42.83;;
11039;SDS011;5573;49.592;8.662;2023-02-15T02:01:43;42.30;;;39.93;;
11039;SDS011;5573;49.592;8.662;2023-02-15T02:04:13;46.20;;;43.73;;
11039;SDS011;5573;49.592;8.662;2023-02-15T02:06:44;43.20;;;40.70;;
11039;SDS011;5573;49.592;8.662;2023-02-15T02:09:15;42.93;;;40.70;;
11039;SDS011;5573;49.592;8.662;2023-02-15T02:11:44;47.17;;;44.67;;
11039;SDS011;5573;49.592;8.662;2023-02-15T02:14:13;47.67;;;45.00;;
11039;SDS011;5573;49.592;8.662;2023-02-15T02:16:46;43.70;;;40.97;;
11039;SDS011;5573;49.592;8.662;2023-02-15T02:19:32;46.00;;;43.57;;
11039;SDS011;5573;49.592;8.662;2023-02-15T02:25:27;42.47;;;40.17;;
11039;SDS011;5573;49.592;8.662;2023-02-15T02:28:28;42.70;;;40.50;;
11039;SDS011;5573;49.592;8.662;2023-02-15T02:31:19;43.73;;;41.43;;
11039;SDS011;5573;49.592;8.662;2023-02-15T02:34:02;44.77;;;42.33;;
11039;SDS011;5573;49.592;8.662;2023-02-15T02:36:34;52.30;;;49.27;;
11039;SDS011;5573;49.592;8.662;2023-02-15T02:39:19;46.67;;;44.20;;
11039;SDS011;5573;49.592;8.662;2023-02-15T02:41:55;43.93;;;41.53;;
11039;SDS011;5573;49.592;8.662;2023-02-15T02:44:29;48.27;;;45.67;;
11039;SDS011;5573;49.592;8.662;2023-02-15T02:47:04;50.90;;;48.13;;
11039;SDS011;5573;49.592;8.662;2023-02-15T02:49:41;46.00;;;43.50;;
11039;SDS011;5573;49.592;8.662;2023-02-15T02:55:03;47.10;;;44.50;;
11039;SDS011;5573;49.592;8.662;2023-02-15T02:57:34;49.40;;;46.80;;
11039;SDS011;5573;49.592;8.662;2023-02-15T03:00:08;49.33;;;46.67;;
11039;SDS011;5573;49.592;8.662;2023-02-15T03:02:37;45.67;;;43.13;;
11039;SDS011;5573;49.592;8.662;2023-02-15T03:05:11;47.37;;;44.77;;
11039;SDS011;5573;49.592;8.662;2023-02-15T03:07:43;48.30;;;45.70;;
11039;SDS011;5573;49.592;8.662;2023-02-15T03:10:17;56.07;;;52.90;;
11039;SDS011;5573;49.592;8.662;2023-02-15T03:12:49;45.27;;;42.87;;
11039;SDS011;5573;49.592;8.662;2023-02-15T03:15:19;48.83;;;46.20;;
11039;SDS011;5573;49.592;8.662;2023-02-15T03:17:51;53.50;;;50.63;;
11039;SDS011;5573;49.592;8.662;2023-02-15T03:20:25;50.77;;;47.97;;
11039;SDS011;5573;49.592;8.662;2023-02-15T03:23:01;46.90;;;44.33;;
11039;SDS011;5573;49.592;8.662;2023-02-15T03:25:34;45.53;;;43.17;;
11039;SDS011;5573;49.592;8.662;2023-02-15T03:28:06;45.43;;;42.90;;
11039;SDS011;5573;49.592;8.662;2023-02-15T03:30:36;51.17;;;48.40;;
11039;SDS011;5573;49.592;8.662;2023-02-15T03:33:07;47.77;;;44.90;;
11039;SDS011;5573;49.592;8.662;2023-02-15T03:35:39;50.67;;;47.93;;
11039;SDS011;5573;49.592;8.662;2023-02-15T03:38:12;48.70;;;45.90;;
11039;SDS011;5573;49.592;8.662;2023-02-15T03:40:47;45.23;;;42.83;;
11039;SDS011;5573;49.592;8.662;2023-02-15T03:43:35;45.07;;;42.53;;
11039;SDS011;5573;49.592;8.662;2023-02-15T03:46:11;46.83;;;43.83;;
11039;SDS011;5573;49.592;8.662;2023-02-15T03:48:44;47.43;;;44.83;;
11039;SDS011;5573;49.592;8.662;2023-02-15T03:51:17;45.53;;;43.10;;
11039;SDS011;5573;49.592;8.662;2023-02-15T03:54:03;43.70;;;40.97;;
11039;SDS011;5573;49.592;8.662;2023-02-15T03:56:34;49.07;;;46.50;;
11039;SDS011;5573;49.592;8.662;2023-02-15T03:59:04;46.07;;;43.50;;
11039;SDS011;5573;49.592;8.662;2023-02-15T04:01:53;49.03;;;46.20;;
11039;SDS011;5573;49.592;8.662;2023-02-15T04:04:28;46.93;;;44.30;;
11039;SDS011;5573;49.592;8.662;2023-02-15T04:07:02;45.67;;;43.27;;
11039;SDS011;5573;49.592;8.662;2023-02-15T04:09:32;50.20;;;47.50;;
11039;SDS011;5573;49.592;8.662;2023-02-15T04:12:17;51.23;;;48.50;;
11039;SDS011;5573;49.592;8.662;2023-02-15T04:14:45;51.83;;;48.57;;
11039;SDS011;5573;49.592;8.662;2023-02-15T04:17:30;47.97;;;45.40;;
11039;SDS011;5573;49.592;8.662;2023-02-15T04:19:58;44.87;;;42.47;;
11039;SDS011;5573;49.592;8.662;2023-02-15T04:22:44;49.60;;;46.93;;
11039;SDS011;5573;49.592;8.662;2023-02-15T04:25:30;46.80;;;44.00;;
11039;SDS011;5573;49.592;8.662;2023-02-15T04:27:57;44.03;;;41.77;;
11039;SDS011;5573;49.592;8.662;2023-02-15T04:30:25;45.70;;;43.13;;
11039;SDS011;5573;49.592;8.662;2023-02-15T04:32:54;47.30;;;44.80;;
11039;SDS011;5573;49.592;8.662;2023-02-15T04:35:23;47.07;;;44.60;;
11039;SDS011;5573;49.592;8.662;2023-02-15T04:37:53;50.07;;;47.40;;
11039;SDS011;5573;49.592;8.662;2023-02-15T04:40:22;49.83;;;47.17;;
11039;SDS011;5573;49.592;8.662;2023-02-15T04:42:49;49.27;;;46.50;;
11039;SDS011;5573;49.592;8.662;2023-02-15T04:45:17;48.13;;;45.37;;
11039;SDS011;5573;49.592;8.662;2023-02-15T04:47:45;49.80;;;47.07;;
11039;SDS011;5573;49.592;8.662;2023-02-15T04:50:13;50.03;;;47.33;;
11039;SDS011;5573;49.592;8.662;2023-02-15T04:52:40;46.40;;;43.93;;
11039;SDS011;5573;49.592;8.662;2023-02-15T04:55:09;46.67;;;44.20;;
11039;SDS011;5573;49.592;8.662;2023-02-15T04:57:37;45.30;;;42.93;;
11039;SDS011;5573;49.592;8.662;2023-02-15T05:00:05;48.03;;;45.20;;
11039;SDS011;5573;49.592;8.662;2023-02-15T05:02:35;47.57;;;45.03;;
11039;SDS011;5573;49.592;8.662;2023-02-15T05:05:03;47.57;;;45.03;;
11039;SDS011;5573;49.592;8.662;2023-02-15T05:07:31;44.63;;;42.27;;
11039;SDS011;5573;49.592;8.662;2023-02-15T05:09:58;46.67;;;44.17;;
11039;SDS011;5573;49.592;8.662;2023-02-15T05:12:27;41.93;;;39.63;;
11039;SDS011;5573;49.592;8.662;2023-02-15T05:14:55;46.47;;;44.00;;
11039;SDS011;5573;49.592;8.662;2023-02-15T05:17:23;48.93;;;46.37;;
11039;SDS011;5573;49.592;8.662;2023-02-15T05:19:51;48.60;;;46.00;;
11039;SDS011;5573;49.592;8.662;2023-02-15T05:22:18;44.90;;;42.50;;
11039;SDS011;5573;49.592;8.662;2023-02-15T05:24:46;48.43;;;45.40;;
11039;SDS011;5573;49.592;8.662;2023-02-15T05:27:33;45.00;;;42.20;;
11039;SDS011;5573;49.592;8.662;2023-02-15T05:30:18;44.80;;;42.47;;
11039;SDS011;5573;49.592;8.662;2023-02-15T05:32:46;44.30;;;41.90;;
11039;SDS011;5573;49.592;8.662;2023-02-15T05:35:14;46.33;;;43.77;;
11039;SDS011;5573;49.592;8.662;2023-02-15T05:37:43;46.30;;;43.67;;
11039;SDS011;5573;49.592;8.662;2023-02-15T05:40:10;49.40;;;46.80;;
11039;SDS011;5573;49.592;8.662;2023-02-15T05:42:40;49.63;;;46.97;;
11039;SDS011;5573;49.592;8.662;2023-02-15T05:45:08;48.90;;;46.30;;
11039;SDS011;5573;49.592;8.662;2023-02-15T05:47:36;46.10;;;43.60;;
11039;SDS011;5573;49.592;8.662;2023-02-15T05:50:04;50.87;;;47.83;;
11039;SDS011;5573;49.592;8.662;2023-02-15T05:52:32;45.73;;;43.27;;
11039;SDS011;5573;49.592;8.662;2023-02-15T05:55:00;50.77;;;48.03;;
11039;SDS011;5573;49.592;8.662;2023-02-15T05:57:28;45.90;;;43.43;;
11039;SDS011;5573;49.592;8.662;2023-02-15T05:59:57;50.37;;;47.60;;
11039;SDS011;5573;49.592;8.662;2023-02-15T06:02:25;46.53;;;43.77;;
11039;SDS011;5573;49.592;8.662;2023-02-15T06:04:53;47.13;;;44.53;;
11039;SDS011;5573;49.592;8.662;2023-02-15T06:07:20;46.20;;;43.63;;
11039;SDS011;5573;49.592;8.662;2023-02-15T06:09:48;50.77;;;48.10;;
11039;SDS011;5573;49.592;8.662;2023-02-15T06:12:16;49.50;;;46.77;;
11039;SDS011;5573;49.592;8.662;2023-02-15T06:14:43;49.77;;;47.07;;
11039;SDS011;5573;49.592;8.662;2023-02-15T06:17:12;52.60;;;49.70;;
11039;SDS011;5573;49.592;8.662;2023-02-15T06:19:40;48.43;;;45.83;;
11039;SDS011;5573;49.592;8.662;2023-02-15T06:22:08;51.97;;;49.07;;
11039;SDS011;5573;49.592;8.662;2023-02-15T06:24:35;48.50;;;46.00;;
11039;SDS011;5573;49.592;8.662;2023-02-15T06:27:03;48.07;;;45.53;;
11039;SDS011;5573;49.592;8.662;2023-02-15T06:29:31;50.50;;;47.83;;
11039;SDS011;5573;49.592;8.662;2023-02-15T06:31:58;49.40;;;46.67;;
11039;SDS011;5573;49.592;8.662;2023-02-15T06:34:28;47.73;;;45.17;;
11039;SDS011;5573;49.592;8.662;2023-02-15T06:36:55;52.03;;;49.20;;
11039;SDS011;5573;49.592;8.662;2023-02-15T06:39:23;48.80;;;46.27;;
11039;SDS011;5573;49.592;8.662;2023-02-15T06:41:51;47.60;;;44.90;;
11039;SDS011;5573;49.592;8.662;2023-02-15T06:44:19;45.30;;;42.93;;
11039;SDS011;5573;49.592;8.662;2023-02-15T06:46:46;46.17;;;43.67;;
11039;SDS011;5573;49.592;8.662;2023-02-15T06:49:14;53.53;;;50.67;;
11039;SDS011;5573;49.592;8.662;2023-02-15T06:51:43;50.20;;;47.53;;
11039;SDS011;5573;49.592;8.662;2023-02-15T06:54:11;49.20;;;46.60;;
11039;SDS011;5573;49.592;8.662;2023-02-15T06:56:38;49.23;;;46.67;;
11039;SDS011;5573;49.592;8.662;2023-02-15T06:59:06;45.77;;;43.33;;
11039;SDS011;5573;49.592;8.662;2023-02-15T07:01:34;46.50;;;43.80;;
11039;SDS011;5573;49.592;8.662;2023-02-15T07:04:03;52.63;;;49.77;;
11039;SDS011;5573;49.592;8.662;2023-02-15T07:06:31;50.53;;;47.83;;
11039;SDS011;5573;49.592;8.662;2023-02-15T07:09:00;50.13;;;47.30;;
11039;SDS011;5573;49.592;8.662;2023-02-15T07:11:28;46.77;;;44.23;;
11039;SDS011;5573;49.592;8.662;2023-02-15T07:14:13;51.07;;;48.30;;
11039;SDS011;5573;49.592;8.662;2023-02-15T07:16:41;49.87;;;47.20;;
11039;SDS011;5573;49.592;8.662;2023-02-15T07:19:09;48.40;;;45.47;;
11039;SDS011;5573;49.592;8.662;2023-02-15T07:21:37;52.93;;;49.90;;
11039;SDS011;5573;49.592;8.662;2023-02-15T07:24:06;50.47;;;47.80;;
11039;SDS011;5573;49.592;8.662;2023-02-15T07:26:34;51.80;;;49.10;;
11039;SDS011;5573;49.592;8.662;2023-02-15T07:29:01;59.47;;;56.17;;
11039;SDS011;5573;49.592;8.662;2023-02-15T07:31:29;48.80;;;46.03;;
11039;SDS011;5573;49.592;8.662;2023-02-15T07:33:57;52.87;;;49.87;;
11039;SDS011;5573;49.592;8.662;2023-02-15T07:36:25;54.00;;;50.83;;
11039;SDS011;5573;49.592;8.662;2023-02-15T07:38:52;57.53;;;54.50;;
11039;SDS011;5573;49.592;8.662;2023-02-15T07:41:21;49.33;;;46.73;;
11039;SDS011;5573;49.592;8.662;2023-02-15T07:43:49;52.43;;;49.70;;
11039;SDS011;5573;49.592;8.662;2023-02-15T07:46:17;48.33;;;45.77;;
11039;SDS011;5573;49.592;8.662;2023-02-15T07:48:47;54.07;;;51.07;;
11039;SDS011;5573;49.592;8.662;2023-02-15T07:51:15;54.30;;;51.33;;
11039;SDS011;5573;49.592;8.662;2023-02-15T07:53:43;50.30;;;47.47;;
11039;SDS011;5573;49.592;8.662;2023-02-15T07:56:11;53.00;;;50.13;;
11039;SDS011;5573;49.592;8.662;2023-02-15T07:58:41;55.03;;;52.03;;
11039;SDS011;5573;49.592;8.662;2023-02-15T08:01:19;52.13;;;49.30;;
11039;SDS011;5573;49.592;8.662;2023-02-15T08:03:48;52.13;;;49.27;;
11039;SDS011;5573;49.592;8.662;2023-02-15T08:06:17;56.40;;;53.27;;
11039;SDS011;5573;49.592;8.662;2023-02-15T08:08:45;51.73;;;48.97;;
11039;SDS011;5573;49.592;8.662;2023-02-15T08:11:17;55.00;;;51.97;;
11039;SDS011;5573;49.592;8.662;2023-02-15T08:13:57;50.40;;;47.60;;
11039;SDS011;5573;49.592;8.662;2023-02-15T08:16:27;53.57;;;50.70;;
11039;SDS011;5573;49.592;8.662;2023-02-15T08:18:57;52.20;;;49.47;;
11039;SDS011;5573;49.592;8.662;2023-02-15T08:21:26;50.93;;;48.13;;
11039;SDS011;5573;49.592;8.662;2023-02-15T08:23:55;51.37;;;48.60;;
11039;SDS011;5573;49.592;8.662;2023-02-15T08:26:24;56.17;;;53.00;;
11039;SDS011;5573;49.592;8.662;2023-02-15T08:28:53;58.33;;;55.13;;
11039;SDS011;5573;49.592;8.662;2023-02-15T08:31:22;55.07;;;52.03;;
11039;SDS011;5573;49.592;8.662;2023-02-15T08:33:51;57.07;;;53.97;;
11039;SDS011;5573;49.592;8.662;2023-02-15T08:36:21;59.37;;;56.13;;
11039;SDS011;5573;49.592;8.662;2023-02-15T08:38:50;53.57;;;50.73;;
11039;SDS011;5573;49.592;8.662;2023-02-15T08:41:19;56.67;;;53.57;;
11039;SDS011;5573;49.592;8.662;2023-02-15T08:43:50;56.77;;;53.60;;
11039;SDS011;5573;49.592;8.662;2023-02-15T08:46:20;58.17;;;55.07;;
11039;SDS011;5573;49.592;8.662;2023-02-15T08:48:50;58.53;;;55.33;;
11039;SDS011;5573;49.592;8.662;2023-02-15T08:51:19;63.20;;;59.70;;
11039;SDS011;5573;49.592;8.662;2023-02-15T08:53:48;56.30;;;53.13;;
11039;SDS011;5573;49.592;8.662;2023-02-15T08:56:17;60.23;;;56.97;;
11039;SDS011;5573;49.592;8.662;2023-02-15T08:58:46;64.73;;;61.23;;
11039;SDS011;5573;49.592;8.662;2023-02-15T09:01:15;62.37;;;58.87;;
11039;SDS011;5573;49.592;8.662;2023-02-15T09:03:46;57.03;;;54.00;;
11039;SDS011;5573;49.592;8.662;2023-02-15T09:06:17;59.53;;;56.33;;
11039;SDS011;5573;49.592;8.662;2023-02-15T09:08:44;59.37;;;56.07;;
11039;SDS011;5573;49.592;8.662;2023-02-15T09:11:13;61.97;;;58.57;;
11039;SDS011;5573;49.592;8.662;2023-02-15T09:13:48;66.90;;;62.90;;
11039;SDS011;5573;49.592;8.662;2023-02-15T09:16:19;56.40;;;53.37;;
11039;SDS011;5573;49.592;8.662;2023-02-15T09:18:48;61.70;;;58.03;;
11039;SDS011;5573;49.592;8.662;2023-02-15T09:21:18;63.23;;;59.63;;
11039;SDS011;5573;49.592;8.662;2023-02-15T09:23:48;66.27;;;62.77;;
11039;SDS011;5573;49.592;8.662;2023-02-15T09:26:18;66.03;;;62.53;;
11039;SDS011;5573;49.592;8.662;2023-02-15T09:28:50;68.17;;;64.47;;
11039;SDS011;5573;49.592;8.662;2023-02-15T09:31:23;75.47;;;71.23;;
11039;SDS011;5573;49.592;8.662;2023-02-15T09:33:52;69.93;;;65.97;;
11039;SDS011;5573;49.592;8.662;2023-02-15T09:36:22;73.53;;;69.57;;
11039;SDS011;5573;49.592;8.662;2023-02-15T09:38:53;70.33;;;66.43;;
11039;SDS011;5573;49.592;8.662;2023-02-15T09:41:31;74.80;;;70.57;;
11039;SDS011;5573;49.592;8.662;2023-02-15T09:44:14;70.33;;;66.60;;
11039;SDS011;5573;49.592;8.662;2023-02-15T09:46:55;73.33;;;69.27;;
11039;SDS011;5573;49.592;8.662;2023-02-15T09:49:37;76.50;;;72.40;;
11039;SDS011;5573;49.592;8.662;2023-02-15T09:52:17;76.27;;;72.23;;
11039;SDS011;5573;49.592;8.662;2023-02-15T09:55:09;80.90;;;76.47;;
11039;SDS011;5573;49.592;8.662;2023-02-15T09:57:50;75.60;;;71.63;;
11039;SDS011;5573;49.592;8.662;2023-02-15T10:00:30;74.83;;;70.73;;
11039;SDS011;5573;49.592;8.662;2023-02-15T10:03:14;74.40;;;70.43;;
11039;SDS011;5573;49.592;8.662;2023-02-15T10:05:54;77.03;;;72.93;;
11039;SDS011;5573;49.592;8.662;2023-02-15T10:08:44;70.90;;;67.10;;
11039;SDS011;5573;49.592;8.662;2023-02-15T10:11:36;84.13;;;79.33;;
11039;SDS011;5573;49.592;8.662;2023-02-15T10:14:22;86.20;;;81.23;;
11039;SDS011;5573;49.592;8.662;2023-02-15T10:17:14;80.30;;;75.87;;
11039;SDS011;5573;49.592;8.662;2023-02-15T10:19:55;84.13;;;79.23;;
11039;SDS011;5573;49.592;8.662;2023-02-15T10:22:35;80.07;;;75.73;;
11039;SDS011;5573;49.592;8.662;2023-02-15T10:25:17;82.70;;;78.20;;
11039;SDS011;5573;49.592;8.662;2023-02-15T10:27:57;80.93;;;76.53;;
11039;SDS011;5573;49.592;8.662;2023-02-15T10:30:31;88.27;;;83.37;;
11039;SDS011;5573;49.592;8.662;2023-02-15T10:33:10;77.33;;;73.00;;
11039;SDS011;5573;49.592;8.662;2023-02-15T10:35:47;83.87;;;79.30;;
11039;SDS011;5573;49.592;8.662;2023-02-15T10:38:27;77.87;;;73.53;;
11039;SDS011;5573;49.592;8.662;2023-02-15T10:41:09;79.63;;;75.30;;
11039;SDS011;5573;49.592;8.662;2023-02-15T10:43:59;83.70;;;79.10;;
11039;SDS011;5573;49.592;8.662;2023-02-15T10:46:45;79.03;;;74.83;;
11039;SDS011;5573;49.592;8.662;2023-02-15T10:49:33;69.83;;;66.17;;
11039;SDS011;5573;49.592;8.662;2023-02-15T10:52:19;72.23;;;68.33;;
11039;SDS011;5573;49.592;8.662;2023-02-15T10:55:00;79.10;;;74.67;;
11039;SDS011;5573;49.592;8.662;2023-02-15T10:57:39;77.83;;;73.50;;
11039;SDS011;5573;49.592;8.662;2023-02-15T11:00:17;70.23;;;66.37;;
11039;SDS011;5573;49.592;8.662;2023-02-15T11:02:52;66.20;;;62.63;;
11039;SDS011;5573;49.592;8.662;2023-02-15T11:05:35;77.10;;;73.03;;
11039;SDS011;5573;49.592;8.662;2023-02-15T11:08:09;76.33;;;72.10;;
11039;SDS011;5573;49.592;8.662;2023-02-15T11:10:39;79.57;;;75.10;;
11039;SDS011;5573;49.592;8.662;2023-02-15T11:13:13;86.23;;;81.33;;
11039;SDS011;5573;49.592;8.662;2023-02-15T11:15:44;86.70;;;81.77;;
11039;SDS011;5573;49.592;8.662;2023-02-15T11:18:19;81.50;;;77.00;;
11039;SDS011;5573;49.592;8.662;2023-02-15T11:20:53;87.90;;;82.60;;
11039;SDS011;5573;49.592;8.662;2023-02-15T11:23:24;81.00;;;76.47;;
11039;SDS011;5573;49.592;8.662;2023-02-15T11:25:55;85.27;;;80.40;;
11039;SDS011;5573;49.592;8.662;2023-02-15T11:28:27;86.87;;;82.20;;
11039;SDS011;5573;49.592;8.662;2023-02-15T11:31:01;82.40;;;77.77;;
11039;SDS011;5573;49.592;8.662;2023-02-15T11:33:40;80.87;;;76.33;;
11039;SDS011;5573;49.592;8.662;2023-02-15T11:36:13;92.93;;;87.50;;
11039;SDS011;5573;49.592;8.662;2023-02-15T11:38:44;87.57;;;82.80;;
11039;SDS011;5573;49.592;8.662;2023-02-15T11:41:17;91.20;;;86.33;;
11039;SDS011;5573;49.592;8.662;2023-02-15T11:43:53;96.17;;;90.70;;
11039;SDS011;5573;49.592;8.662;2023-02-15T11:46:24;96.43;;;91.20;;
11039;SDS011;5573;49.592;8.662;2023-02-15T11:48:52;95.37;;;90.13;;
11039;SDS011;5573;49.592;8.662;2023-02-15T11:51:21;106.17;;;100.27;;
11039;SDS011;5573;49.592;8.662;2023-02-15T11:53:50;97.67;;;92.37;;
11039;SDS011;5573;49.592;8.662;2023-02-15T11:56:19;108.07;;;102.10;;
11039;SDS011;5573;49.592;8.662;2023-02-15T11:58:53;103.40;;;97.83;;
11039;SDS011;5573;49.592;8.662;2023-02-15T12:01:24;102.97;;;97.30;;
11039;SDS011;5573;49.592;8.662;2023-02-15T12:03:58;104.40;;;98.70;;
11039;SDS011;5573;49.592;8.662;2023-02-15T12:06:32;106.10;;;100.27;;
11039;SDS011;5573;49.592;8.662;2023-02-15T12:09:03;100.30;;;94.97;;
11039;SDS011;5573;49.592;8.662;2023-02-15T12:11:35;106.47;;;100.27;;
11039;SDS011;5573;49.592;8.662;2023-02-15T12:14:07;101.20;;;95.73;;
11039;SDS011;5573;49.592;8.662;2023-02-15T12:16:43;119.07;;;112.07;;
11039;SDS011;5573;49.592;8.662;2023-02-15T12:19:23;115.20;;;108.27;;
11039;SDS011;5573;49.592;8.662;2023-02-15T12:21:56;118.77;;;112.37;;
11039;SDS011;5573;49.592;8.662;2023-02-15T12:24:26;120.70;;;114.17;;
11039;SDS011;5573;49.592;8.662;2023-02-15T12:26:56;131.03;;;124.00;;
11039;SDS011;5573;49.592;8.662;2023-02-15T12:29:30;126.03;;;119.33;;
11039;SDS011;5573;49.592;8.662;2023-02-15T12:32:02;124.97;;;117.93;;
11039;SDS011;5573;49.592;8.662;2023-02-15T12:34:32;125.50;;;118.63;;
11039;SDS011;5573;49.592;8.662;2023-02-15T12:37:08;145.13;;;137.30;;
11039;SDS011;5573;49.592;8.662;2023-02-15T12:39:51;140.83;;;133.10;;
11039;SDS011;5573;49.592;8.662;2023-02-15T12:42:20;136.20;;;128.47;;
11039;SDS011;5573;49.592;8.662;2023-02-15T12:44:54;146.43;;;138.60;;
11039;SDS011;5573;49.592;8.662;2023-02-15T12:47:24;133.07;;;125.47;;
11039;SDS011;5573;49.592;8.662;2023-02-15T12:53:02;138.60;;;131.17;;
11039;SDS011;5573;49.592;8.662;2023-02-15T12:55:34;133.37;;;126.00;;
11039;SDS011;5573;49.592;8.662;2023-02-15T12:58:06;128.63;;;121.90;;
11039;SDS011;5573;49.592;8.662;2023-02-15T13:00:43;139.57;;;131.37;;
11039;SDS011;5573;49.592;8.662;2023-02-15T13:03:15;137.60;;;130.07;;
11039;SDS011;5573;49.592;8.662;2023-02-15T13:05:46;146.73;;;138.63;;
11039;SDS011;5573;49.592;8.662;2023-02-15T13:08:17;142.40;;;134.63;;
11039;SDS011;5573;49.592;8.662;2023-02-15T13:10:52;134.73;;;127.40;;
11039;SDS011;5573;49.592;8.662;2023-02-15T13:13:23;136.73;;;129.33;;
11039;SDS011;5573;49.592;8.662;2023-02-15T13:15:55;128.93;;;122.00;;
11039;SDS011;5573;49.592;8.662;2023-02-15T13:18:29;138.83;;;131.03;;
11039;SDS011;5573;49.592;8.662;2023-02-15T13:21:00;139.30;;;131.73;;
11039;SDS011;5573;49.592;8.662;2023-02-15T13:23:36;142.03;;;134.43;;
11039;SDS011;5573;49.592;8.662;2023-02-15T13:26:08;128.03;;;120.87;;
11039;SDS011;5573;49.592;8.662;2023-02-15T13:28:41;122.87;;;116.40;;
11039;SDS011;5573;49.592;8.662;2023-02-15T13:31:13;123.87;;;117.20;;
11039;SDS011;5573;49.592;8.662;2023-02-15T13:33:45;123.13;;;116.13;;
11039;SDS011;5573;49.592;8.662;2023-02-15T13:36:18;135.13;;;127.73;;
11039;SDS011;5573;49.592;8.662;2023-02-15T13:39:09;123.17;;;116.43;;
11039;SDS011;5573;49.592;8.662;2023-02-15T13:41:47;122.60;;;115.87;;
11039;SDS011;5573;49.592;8.662;2023-02-15T13:44:26;132.43;;;125.20;;
11039;SDS011;5573;49.592;8.662;2023-02-15T13:47:13;133.87;;;126.53;;
11039;SDS011;5573;49.592;8.662;2023-02-15T13:49:52;129.47;;;122.33;;
11039;SDS011;5573;49.592;8.662;2023-02-15T13:52:37;117.70;;;111.17;;
11039;SDS011;5573;49.592;8.662;2023-02-15T13:55:19;127.63;;;120.77;;
11039;SDS011;5573;49.592;8.662;2023-02-15T13:58:01;132.43;;;125.37;;
11039;SDS011;5573;49.592;8.662;2023-02-15T14:00:43;135.17;;;127.80;;
11039;SDS011;5573;49.592;8.662;2023-02-15T14:03:24;128.03;;;121.17;;
11039;SDS011;5573;49.592;8.662;2023-02-15T14:06:14;129.90;;;122.67;;
11039;SDS011;5573;49.592;8.662;2023-02-15T14:08:58;131.87;;;124.70;;
11039;SDS011;5573;49.592;8.662;2023-02-15T14:11:39;119.57;;;113.07;;
11039;SDS011;5573;49.592;8.662;2023-02-15T14:14:22;127.83;;;120.87;;
11039;SDS011;5573;49.592;8.662;2023-02-15T14:17:00;124.53;;;117.73;;
11039;SDS011;5573;49.592;8.662;2023-02-15T14:19:37;126.03;;;119.17;;
11039;SDS011;5573;49.592;8.662;2023-02-15T14:22:14;125.63;;;118.80;;
11039;SDS011;5573;49.592;8.662;2023-02-15T14:24:53;125.10;;;118.40;;
11039;SDS011;5573;49.592;8.662;2023-02-15T14:27:39;131.00;;;123.67;;
11039;SDS011;5573;49.592;8.662;2023-02-15T14:30:19;118.67;;;112.27;;
11039;SDS011;5573;49.592;8.662;2023-02-15T14:32:49;119.83;;;113.27;;
11039;SDS011;5573;49.592;8.662;2023-02-15T14:35:22;132.77;;;125.73;;
11039;SDS011;5573;49.592;8.662;2023-02-15T14:37:55;116.20;;;109.80;;
11039;SDS011;5573;49.592;8.662;2023-02-15T14:40:30;129.37;;;122.47;;
11039;SDS011;5573;49.592;8.662;2023-02-15T14:43:26;120.70;;;113.83;;
11039;SDS011;5573;49.592;8.662;2023-02-15T14:46:02;128.20;;;120.83;;
11039;SDS011;5573;49.592;8.662;2023-02-15T14:48:37;135.53;;;128.23;;
11039;SDS011;5573;49.592;8.662;2023-02-15T14:51:11;128.37;;;121.37;;
11039;SDS011;5573;49.592;8.662;2023-02-15T14:57:23;120.40;;;113.63;;
11039;SDS011;5573;49.592;8.662;2023-02-15T15:00:01;119.20;;;112.73;;
11039;SDS011;5573;49.592;8.662;2023-02-15T15:02:51;119.13;;;112.30;;
11039;SDS011;5573;49.592;8.662;2023-02-15T15:05:21;128.17;;;120.93;;
11039;SDS011;5573;49.592;8.662;2023-02-15T15:07:55;137.83;;;130.50;;
11039;SDS011;5573;49.592;8.662;2023-02-15T15:10:37;137.17;;;129.77;;
11039;SDS011;5573;49.592;8.662;2023-02-15T15:18:53;123.10;;;116.50;;
11039;SDS011;5573;49.592;8.662;2023-02-15T15:27:42;131.23;;;124.00;;